Aviation Digital Data Service (ADDS)

Output produced by METARs form (0329 UTC 29 November 2014)
found at http://www.aviationweather.gov/adds/metars/
 
SEGU 290300Z 22011KT 9999 SCT030 23/19 Q1010 NOSIG RMK A2984
SEGU 282200Z 2900/2924 22012KT 9999 SCT020 SCT100 
     FM290600 22008KT 9999 BKN020 BKN100 
     FM191200 21004KT 9999 SCT020 SCT100 
     FM291800 15006KT 9999 FEW020 SCT100 TX31/2920Z TN22/2911Z
       
SEMT 290300Z 17015KT 9999 BKN020 23/20 Q1010
SEMT 282200Z 2900/2924 22010KT 9999 SCT023 
     FM290600 19008KT 9999 BKN020 
     FM291800 18015KT 9999 SCT023 TX29/2920Z TN22/2911Z